Flight Track Log - Related Links

Times and Time Zones

All times are in EDT time to prevent confusion due to time zone crossing. See the SWA440 flight status page for this flight to view local times or setup timezone preferences in your user account.

Time Position Orientation Groundspeed Altitude Reporting Facility
EDT Latitude Longitude Course Direction KTS MPH feet Rate Location/Type
Tue 07:14:12 AM 44.8931 -93.2611 258° West 171 197 2,700  Level FAA TRACON SMA TRACON (SMA)
Tue 07:14:32 AM 44.8897 -93.2833 258° West 186 214 3,600 3,220 Climbing FAA TRACON SMA TRACON (SMA)
Tue 07:14:53 AM 44.8847 -93.3122 256° West 197 227 4,900 3,450 Climbing FAA TRACON SMA TRACON (SMA)
Tue 07:15:12 AM 44.8811 -93.3367 258° West 203 234 5,900 3,692 Climbing FAA TRACON SMA TRACON (SMA)
Tue 07:15:32 AM 44.8772 -93.3600 257° West 201 231 7,300 4,950 Climbing FAA TRACON SMA TRACON (SMA)
Tue 07:15:52 AM 44.8622 -93.3806 224° Southwest 214 246 9,200 4,650 Climbing FAA TRACON SMA TRACON (SMA)
Tue 07:16:12 AM 44.8428 -93.3761 171° South 235 270 10,400 2,341 Climbing FAA TRACON SMA TRACON (SMA)
Tue 07:16:33 AM 44.8219 -93.3594 150° Southeast 266 306 10,800 2,100 Climbing FAA TRACON SMA TRACON (SMA)
Tue 07:16:52 AM 44.7944 -93.3289 142° Southeast 320 368 11,800 3,077 Climbing FAA TRACON SMA TRACON (SMA)
Tue 07:17:12 AM 44.7714 -93.3028 141° Southeast 343 395 12,800 3,150 Climbing FAA TRACON SMA TRACON (SMA)
Tue 07:17:32 AM 44.7475 -93.2769 142° Southeast 351 404 13,900 3,600 Climbing FAA TRACON SMA TRACON (SMA)
Tue 07:17:52 AM 44.7158 -93.2456 145° Southeast 359 413 15,200 3,136 Climbing FAA TRACON SMA TRACON (SMA)
Tue 07:18:16 AM 44.6900 -93.2197 145° Southeast 368 423 16,200 2,930 Climbing FAA TRACON SMA TRACON (SMA)
Tue 07:18:35 AM 44.6561 -93.1864 145° Southeast 382 440 17,300 3,500 Climbing FAA TRACON SMA TRACON (SMA)
Tue 07:18:52 AM 44.6286 -93.1592 145° Southeast 392 451 18,300 3,474 Climbing FAA TRACON SMA TRACON (SMA)
Tue 07:19:13 AM 44.6008 -93.1317 145° Southeast 397 457 19,500 3,450 Climbing FAA TRACON SMA TRACON (SMA)
Tue 07:19:32 AM 44.5728 -93.1044 145° Southeast 397 457 20,600 3,692 Climbing FAA TRACON SMA TRACON (SMA)
Tue 07:19:52 AM 44.5378 -93.0689 144° Southeast 401 461 21,900 3,450 Climbing FAA TRACON SMA TRACON (SMA)
Tue 07:20:12 AM 44.5092 -93.0414 146° Southeast 403 464 22,900 2,700 Climbing FAA TRACON SMA TRACON (SMA)
Tue 07:20:32 AM 44.4808 -93.0125 144° Southeast 407 468 23,700 2,700 Climbing FAA TRACON SMA TRACON (SMA)
Tue 07:20:52 AM 44.4447 -92.9764 144° Southeast 415 478 24,700 2,700 Climbing FAA TRACON SMA TRACON (SMA)
Tue 07:21:12 AM 44.4150 -92.9475 145° Southeast 421 484 25,500 2,341 Climbing FAA TRACON SMA TRACON (SMA)
Tue 07:21:33 AM 44.3850 -92.9183 145° Southeast 426 490 26,300 3,150 Climbing FAA TRACON SMA TRACON (SMA)
Tue 07:21:52 AM 44.3472 -92.8811 145° Southeast 431 496 27,600 3,538 Climbing FAA TRACON SMA TRACON (SMA)
Tue 07:22:12 AM 44.3175 -92.8517 145° Southeast 427 491 28,600 2,850 Climbing FAA TRACON SMA TRACON (SMA)
Tue 07:22:32 AM 44.2881 -92.8228 145° Southeast 424 488 29,500 2,550 Climbing FAA TRACON SMA TRACON (SMA)
Tue 07:22:52 AM 44.2508 -92.7875 146° Southeast 422 486 30,300 2,100 Climbing FAA TRACON SMA TRACON (SMA)
Tue 07:23:12 AM 44.2211 -92.7581 145° Southeast 424 488 30,900 1,050 Climbing FAA TRACON SMA TRACON (SMA)
Tue 07:23:32 AM 44.1906 -92.7289 146° Southeast 430 495 31,000 146 Climbing FAA TRACON SMA TRACON (SMA)
Tue 07:23:53 AM 44.1517 -92.6914 145° Southeast 440 506 31,000  Level FAA TRACON SMA TRACON (SMA)
Tue 07:24:12 AM 44.1203 -92.6600 144° Southeast 448 516 31,000  Level FAA TRACON SMA TRACON (SMA)
Tue 07:24:32 AM 44.0886 -92.6300 146° Southeast 448 516 31,000  Level FAA TRACON SMA TRACON (SMA)
Tue 07:24:52 AM 44.0494 -92.5917 145° Southeast 449 517 31,000  Level FAA TRACON SMA TRACON (SMA)
Tue 07:25:12 AM 44.0175 -92.5628 147° Southeast 447 514 31,000  Level FAA TRACON SMA TRACON (SMA)
Tue 07:25:31 AM 43.9947 -92.5503 158° South 451 519 31,000  Level Minneapolis Center
Tue 07:26:32 AM 43.8917 -92.4528 146° Southeast 450 518 31,000  Level Minneapolis Center
Tue 07:27:33 AM 43.7917 -92.3567 145° Southeast 454 522 31,000  Level Minneapolis Center
Tue 07:28:34 AM 43.6872 -92.2592 146° Southeast 456 525 31,000  Level Minneapolis Center
Tue 07:29:34 AM 43.5842 -92.1628 146° Southeast 452 520 31,000 -446 Level Minneapolis Center
Tue 07:30:35 AM 43.4603 -92.0522 147° Southeast 446 513 30,100 -934 Descending Minneapolis Center
Tue 07:31:36 AM 43.3592 -91.9594 146° Southeast 442 509 29,100 -541 Descending Minneapolis Center
Tue 07:32:37 AM 43.2575 -91.8647 146° Southeast 442 509 29,000 -49 Descending Minneapolis Center
Tue 07:33:38 AM 43.1561 -91.7700 146° Southeast 443 510 29,000  Level Minneapolis Center
Tue 07:34:39 AM 43.0539 -91.6722 145° Southeast 446 513 29,000  Level Minneapolis Center
Tue 07:35:40 AM 42.9564 -91.5578 139° Southeast 456 525 29,000  Level Minneapolis Center
Tue 07:36:41 AM 42.8561 -91.4444 140° Southeast 460 529 29,000  Level Minneapolis Center
Tue 07:37:42 AM 42.7567 -91.3319 140° Southeast 458 527 29,000  Level Minneapolis Center
Tue 07:38:42 AM 42.6594 -91.2225 140° Southeast 455 524 29,000  Level Minneapolis Center
Tue 07:38:58 AM 42.6414 -91.2011 139° Southeast 454 522 29,000  Level Chicago Center
Tue 07:39:59 AM 42.5453 -91.0939 141° Southeast 450 518 29,000  Level Chicago Center
Tue 07:41:01 AM 42.4297 -90.9672 141° Southeast 449 517 29,000  Level Chicago Center
Tue 07:42:02 AM 42.3347 -90.8592 140° Southeast 448 516 29,000 -341 Level Chicago Center
Tue 07:43:04 AM 42.2431 -90.7578 141° Southeast 431 496 28,300 -1,463 Descending Chicago Center
Tue 07:44:05 AM 42.1567 -90.6644 141° Southeast 407 468 26,000 -2,098 Descending Chicago Center
Tue 07:45:07 AM 42.0694 -90.5678 141° Southeast 408 470 24,000 -1,366 Descending Chicago Center
Tue 07:46:08 AM 41.9828 -90.4717 140° Southeast 408 470 23,200 -878 Descending Chicago Center
Tue 07:47:10 AM 41.8942 -90.3753 141° Southeast 412 474 22,200 -1,016 Descending Chicago Center
Tue 07:48:12 AM 41.7875 -90.2619 142° Southeast 411 473 21,100 -927 Descending Chicago Center
Tue 07:49:13 AM 41.7089 -90.1753 141° Southeast 418 481 20,300 -878 Descending Chicago Center
Tue 07:50:15 AM 41.6167 -90.0750 141° Southeast 424 488 19,300 -1,122 Descending Chicago Center
Tue 07:51:16 AM 41.5067 -89.9578 141° Southeast 423 487 18,000 -1,024 Descending Chicago Center
Tue 07:52:18 AM 41.4144 -89.8592 141° Southeast 423 487 17,200 -871 Descending Chicago Center
Tue 07:53:20 AM 41.3347 -89.7483 134° Southeast 423 487 16,200 -976 Descending Chicago Center
Tue 07:54:21 AM 41.3458 -89.5864 85° East 439 505 15,200 -976 Descending Chicago Center
Tue 07:55:23 AM 41.3714 -89.4283 78° East 437 503 14,200 -968 Descending Chicago Center
Tue 07:56:25 AM 41.3972 -89.2717 78° East 433 498 13,200 -976 Descending Chicago Center
Tue 07:57:26 AM 41.4089 -89.1006 85° East 415 478 12,200 -585 Descending Chicago Center
Tue 07:58:28 AM 41.3981 -88.9614 96° East 383 441 12,000 -339 Descending Chicago Center
Tue 07:59:30 AM 41.3892 -88.8331 95° East 356 410 11,500 -1,024 Descending Chicago Center
Tue 08:00:31 AM 41.3800 -88.7069 95° East 347 399 9,900 -1,317 Descending Chicago Center
Tue 08:01:33 AM 41.3722 -88.5861 95° East 334 384 8,800 -1,161 Descending Chicago Center
Tue 08:02:35 AM 41.3661 -88.4703 94° East 320 368 7,500 -1,268 Descending Chicago Center
Tue 08:03:36 AM 41.4269 -88.3842 47° Northeast 296 341 6,200 -732 Descending Chicago Center
Tue 08:04:38 AM 41.4969 -88.3431 24° Northeast 277 319 6,000 -290 Descending Chicago Center
Tue 08:05:40 AM 41.5219 -88.2425 72° East 286 329 5,600 -532 Descending Chicago Center
Tue 08:06:42 AM 41.5367 -88.1383 79° East 285 328 4,900 -293 Descending Chicago Center
Tue 08:07:43 AM 41.5525 -88.0344 78° East 282 325 5,000 49 Climbing Chicago Center
Tue 08:08:45 AM 41.5672 -87.9300 79° East 284 327 5,000 -48 Level Chicago Center
Tue 08:09:47 AM 41.5825 -87.8281 79° East 281 323 4,900 -387 Descending Chicago Center
Tue 08:10:49 AM 41.5956 -87.7375 79° East 266 306 4,200 -780 Descending Chicago Center
Tue 08:11:50 AM 41.6303 -87.6694 56° Northeast 241 277 3,300 -732 Descending Chicago Center
Tue 08:12:52 AM 41.6767 -87.6175 40° Northeast 215 247 2,700 -359 Descending Chicago Center
Tue 08:13:47 AM 41.7167 -87.6500 329° Northwest 168 193 2,600 -470 Descending Chicago TRACON
Tue 08:14:47 AM 41.7500 -87.7000 312° West 147 169 1,800 -750 Descending Chicago TRACON
Tue 08:15:47 AM 41.7667 -87.7333 304° West 124 143 1,100 -700 Descending Chicago TRACON

Login

Don't have an account? Register now (free) for customized features, flight alerts, and more!